Time;durP1;ratioP1;P1;durP2;ratioP2;P2;SDS_P1;SDS_P2;PMS_P1;PMS_P2;Temp;Humidity;BMP_temperature;BMP_pressure;BME280_temperature;BME280_humidity;BME280_pressure;Samples;Min_cycle;Max_cycle;Signal;HPM_P1;HPM_P2
2021/04/25 00:01:40;;;;;;;3.97;2.75;;;12.30;77.80;;;;;;5102981;28;20649;-71
2021/04/25 00:04:09;;;;;;;6.68;2.95;;;12.30;78.00;;;;;;5113523;28;20210;-71
2021/04/25 00:06:35;;;;;;;3.60;2.55;;;12.30;78.10;;;;;;5108317;28;20212;-70
2021/04/25 00:09:01;;;;;;;4.80;3.00;;;12.30;78.30;;;;;;5096562;28;20197;-70
2021/04/25 00:11:28;;;;;;;3.75;2.45;;;12.30;78.40;;;;;;5112722;28;20235;-70
2021/04/25 00:13:54;;;;;;;4.63;3.47;;;12.20;78.50;;;;;;5114763;28;20216;-70
2021/04/25 00:16:22;;;;;;;6.15;2.60;;;12.20;78.70;;;;;;5105237;28;20703;-70
2021/04/25 00:18:48;;;;;;;3.13;2.42;;;12.20;78.80;;;;;;5094157;28;20541;-70
2021/04/25 00:21:17;;;;;;;3.55;2.80;;;12.20;78.80;;;;;;5098139;28;20214;-70
2021/04/25 00:23:43;;;;;;;3.75;2.78;;;12.20;78.90;;;;;;5108905;28;21250;-71
2021/04/25 00:26:10;;;;;;;3.72;3.13;;;12.10;78.90;;;;;;5095858;28;20221;-71
2021/04/25 00:28:36;;;;;;;5.07;2.88;;;12.10;79.00;;;;;;5093980;28;20198;-71
2021/04/25 00:31:02;;;;;;;4.00;3.28;;;12.10;79.20;;;;;;5103200;28;20649;-72
2021/04/25 00:33:28;;;;;;;4.28;3.45;;;12.10;79.30;;;;;;5093523;28;20198;-71
2021/04/25 00:35:54;;;;;;;5.85;2.85;;;12.10;79.30;;;;;;5093809;28;20194;-71
2021/04/25 00:38:21;;;;;;;3.40;2.72;;;12.10;79.40;;;;;;5097475;28;20205;-70
2021/04/25 00:40:47;;;;;;;3.45;2.53;;;12.00;79.40;;;;;;5104844;28;20202;-70
2021/04/25 00:43:14;;;;;;;5.68;3.50;;;12.00;79.50;;;;;;5099064;28;20198;-70
2021/04/25 00:45:40;;;;;;;4.10;2.78;;;12.00;79.60;;;;;;5093571;28;20225;-70
2021/04/25 00:48:06;;;;;;;4.78;3.40;;;12.00;79.70;;;;;;5093619;28;20672;-70
2021/04/25 00:50:33;;;;;;;4.47;3.10;;;11.90;79.80;;;;;;5096527;28;20259;-71
2021/04/25 00:53:00;;;;;;;3.35;2.78;;;11.90;80.00;;;;;;5104652;28;20778;-71
2021/04/25 00:55:29;;;;;;;3.20;2.90;;;11.90;80.20;;;;;;5093291;28;20701;-71
2021/04/25 00:57:56;;;;;;;3.90;3.20;;;11.90;80.30;;;;;;5093784;28;20242;-71
2021/04/25 01:00:23;;;;;;;3.33;2.88;;;11.90;80.30;;;;;;5095381;28;20641;-71
2021/04/25 01:02:49;;;;;;;3.33;2.70;;;11.90;80.30;;;;;;5109441;28;20189;-70
2021/04/25 01:05:18;;;;;;;3.92;2.92;;;11.80;80.30;;;;;;5102597;28;20201;-71
2021/04/25 01:07:44;;;;;;;4.45;2.40;;;11.80;80.40;;;;;;5109893;28;20192;-71
2021/04/25 01:10:12;;;;;;;4.85;3.20;;;11.80;80.50;;;;;;5113196;28;20185;-71
2021/04/25 01:12:40;;;;;;;2.70;2.30;;;11.80;80.60;;;;;;5098641;28;20201;-71
2021/04/25 01:15:09;;;;;;;5.90;3.15;;;11.80;80.70;;;;;;5110193;28;20209;-71
2021/04/25 01:17:40;;;;;;;4.53;2.67;;;11.80;80.80;;;;;;5106138;28;20242;-71
2021/04/25 01:20:09;;;;;;;3.78;3.15;;;11.70;80.80;;;;;;5093092;28;20672;-71
2021/04/25 01:22:36;;;;;;;3.60;2.70;;;11.70;80.80;;;;;;5094049;28;20231;-71
2021/04/25 01:25:03;;;;;;;3.17;2.80;;;11.70;81.00;;;;;;5094560;28;20204;-71
2021/04/25 01:27:29;;;;;;;3.05;2.63;;;11.70;81.10;;;;;;5105399;28;20685;-71
2021/04/25 01:29:55;;;;;;;7.60;3.28;;;11.70;81.20;;;;;;5092826;28;20198;-71
2021/04/25 01:32:22;;;;;;;4.32;2.70;;;11.60;81.30;;;;;;5103761;28;20197;-70
2021/04/25 01:34:48;;;;;;;3.90;3.05;;;11.60;81.20;;;;;;5109188;28;20197;-71
2021/04/25 01:37:14;;;;;;;6.18;3.85;;;11.60;81.20;;;;;;5107405;28;20189;-71
2021/04/25 01:39:41;;;;;;;4.47;2.60;;;11.60;81.20;;;;;;5098236;28;20205;-71
2021/04/25 01:42:07;;;;;;;5.25;3.30;;;11.60;81.30;;;;;;5111431;28;20207;-71
2021/04/25 01:44:33;;;;;;;4.40;3.30;;;11.60;81.40;;;;;;5110288;28;20581;-71
2021/04/25 01:47:00;;;;;;;6.07;2.90;;;11.60;81.60;;;;;;5106881;28;20212;-71
2021/04/25 01:49:26;;;;;;;5.50;3.63;;;11.50;81.60;;;;;;5092579;28;20530;-71
2021/04/25 01:51:52;;;;;;;3.42;3.13;;;11.50;81.70;;;;;;5097825;28;20192;-71
2021/04/25 01:54:18;;;;;;;6.75;4.95;;;11.50;81.60;;;;;;5105591;28;20253;-71
2021/04/25 01:56:45;;;;;;;3.45;2.75;;;11.50;81.60;;;;;;5112870;28;20193;-71
2021/04/25 01:59:11;;;;;;;3.17;2.88;;;11.50;81.80;;;;;;5111633;28;20196;-71
2021/04/25 02:01:38;;;;;;;4.65;2.97;;;11.50;81.80;;;;;;5106067;28;20942;-71
2021/04/25 02:04:04;;;;;;;3.28;2.95;;;11.50;81.80;;;;;;5092420;28;20197;-71
2021/04/25 02:06:32;;;;;;;6.03;3.88;;;11.50;81.90;;;;;;5101564;28;20216;-71
2021/04/25 02:08:58;;;;;;;3.90;2.85;;;11.40;81.80;;;;;;5095006;28;20213;-71
2021/04/25 02:11:24;;;;;;;3.90;3.28;;;11.40;82.00;;;;;;5092556;28;20220;-71
2021/04/25 02:13:51;;;;;;;4.00;2.90;;;11.40;82.00;;;;;;5093041;28;20197;-71
2021/04/25 02:16:17;;;;;;;2.83;2.17;;;11.40;82.10;;;;;;5091751;28;20201;-71
2021/04/25 02:18:44;;;;;;;5.93;3.08;;;11.40;82.00;;;;;;5091789;28;20201;-71
2021/04/25 02:21:10;;;;;;;4.47;2.88;;;11.40;82.20;;;;;;5092830;28;20205;-71
2021/04/25 02:23:36;;;;;;;3.97;3.30;;;11.40;82.30;;;;;;5091984;28;20241;-71
2021/04/25 02:26:02;;;;;;;3.33;3.00;;;11.40;82.20;;;;;;5091189;28;20225;-71
2021/04/25 02:28:28;;;;;;;5.18;3.22;;;11.30;82.10;;;;;;5094250;28;20189;-72
2021/04/25 02:30:56;;;;;;;5.30;3.75;;;11.30;82.20;;;;;;5097366;28;20205;-72
2021/04/25 02:33:22;;;;;;;5.65;3.50;;;11.30;82.40;;;;;;5110582;28;20197;-72
2021/04/25 02:35:48;;;;;;;5.85;3.95;;;11.20;82.40;;;;;;5094558;28;20518;-72
2021/04/25 02:38:14;;;;;;;5.78;3.00;;;11.20;82.50;;;;;;5091584;28;20642;-70
2021/04/25 02:40:41;;;;;;;4.57;3.15;;;11.20;82.50;;;;;;5110156;28;20212;-70
2021/04/25 02:43:07;;;;;;;4.93;3.40;;;11.20;82.60;;;;;;5111703;28;20201;-70
2021/04/25 02:45:33;;;;;;;4.10;3.45;;;11.20;82.70;;;;;;5094651;28;20193;-70
2021/04/25 02:48:02;;;;;;;6.55;3.13;;;11.10;82.80;;;;;;5094012;28;20681;-70
2021/04/25 02:50:30;;;;;;;3.55;2.90;;;11.20;82.80;;;;;;5091704;28;20197;-70
2021/04/25 02:52:57;;;;;;;3.45;2.80;;;11.10;82.80;;;;;;5107268;28;20203;-70
2021/04/25 02:55:24;;;;;;;4.25;3.20;;;11.10;82.90;;;;;;5094783;28;20193;-70
2021/04/25 02:57:50;;;;;;;4.78;2.92;;;11.10;82.80;;;;;;5091106;28;20204;-70
2021/04/25 03:00:18;;;;;;;4.25;3.22;;;11.10;82.90;;;;;;5091373;28;20302;-70
2021/04/25 03:02:45;;;;;;;5.57;3.30;;;11.00;83.00;;;;;;5110248;28;20570;-70
2021/04/25 03:05:13;;;;;;;5.10;4.10;;;11.00;83.20;;;;;;5094704;28;20209;-70
2021/04/25 03:07:40;;;;;;;6.35;3.20;;;11.00;83.40;;;;;;5107775;28;20216;-70
2021/04/25 03:10:07;;;;;;;5.30;3.72;;;11.00;83.50;;;;;;5111428;28;20201;-70
2021/04/25 03:12:34;;;;;;;3.65;3.00;;;11.00;83.50;;;;;;5094665;28;20815;-70
2021/04/25 03:15:00;;;;;;;6.20;3.53;;;11.00;83.60;;;;;;5105117;28;20258;-70
2021/04/25 03:17:26;;;;;;;3.92;3.15;;;11.00;83.80;;;;;;5107227;28;20206;-70
2021/04/25 03:19:53;;;;;;;4.15;2.85;;;11.00;83.70;;;;;;5090865;28;20208;-70
2021/04/25 03:22:20;;;;;;;8.68;3.15;;;10.90;83.70;;;;;;5093701;28;20201;-71
2021/04/25 03:24:46;;;;;;;5.13;3.00;;;10.90;83.80;;;;;;5091150;28;20514;-70
2021/04/25 03:27:12;;;;;;;4.90;3.45;;;10.90;84.00;;;;;;5090979;28;20557;-70
2021/04/25 03:29:39;;;;;;;5.07;3.58;;;10.90;84.00;;;;;;5090341;28;20216;-70
2021/04/25 03:32:06;;;;;;;7.50;3.40;;;10.90;84.00;;;;;;5091002;28;20508;-70
2021/04/25 03:34:32;;;;;;;6.53;4.15;;;10.90;84.20;;;;;;5090829;28;20197;-71
2021/04/25 03:36:58;;;;;;;5.05;3.38;;;10.80;84.20;;;;;;5090598;28;20186;-71
2021/04/25 03:39:25;;;;;;;6.30;4.13;;;10.80;84.30;;;;;;5093371;28;20634;-72
2021/04/25 03:41:51;;;;;;;5.25;2.83;;;10.80;84.10;;;;;;5091180;28;20210;-71
2021/04/25 03:44:17;;;;;;;3.90;2.88;;;10.80;84.30;;;;;;5091529;28;20189;-71
2021/04/25 03:46:44;;;;;;;4.78;2.75;;;10.80;84.10;;;;;;5090600;28;20561;-71
2021/04/25 03:49:10;;;;;;;4.65;3.30;;;10.80;84.20;;;;;;5090209;28;20299;-71
2021/04/25 03:51:37;;;;;;;3.00;2.70;;;10.80;84.30;;;;;;5091016;28;20413;-71
2021/04/25 03:54:04;;;;;;;6.10;3.33;;;10.80;84.50;;;;;;5090321;28;20200;-71
2021/04/25 03:56:31;;;;;;;5.00;3.90;;;10.80;84.50;;;;;;5092318;28;20189;-71
2021/04/25 03:59:00;;;;;;;5.30;2.97;;;10.70;84.70;;;;;;5091265;28;20193;-71
2021/04/25 04:01:26;;;;;;;4.07;2.90;;;10.70;84.60;;;;;;5093142;28;20561;-71
2021/04/25 04:03:52;;;;;;;6.97;3.35;;;10.70;85.00;;;;;;5105956;28;20204;-71
2021/04/25 04:06:19;;;;;;;4.50;2.80;;;10.70;84.70;;;;;;5110834;28;20212;-71
2021/04/25 04:08:45;;;;;;;3.65;2.80;;;10.70;84.70;;;;;;5111230;28;20826;-71
2021/04/25 04:11:11;;;;;;;3.50;2.72;;;10.70;84.60;;;;;;5096754;28;20194;-71
2021/04/25 04:13:38;;;;;;;5.75;3.13;;;10.70;84.80;;;;;;5090687;28;20200;-71
2021/04/25 04:16:05;;;;;;;2.63;2.40;;;10.70;84.90;;;;;;5091085;28;20186;-71
2021/04/25 04:18:31;;;;;;;4.50;3.13;;;10.70;84.70;;;;;;5090199;28;20209;-70
2021/04/25 04:20:57;;;;;;;6.47;3.33;;;10.70;84.70;;;;;;5091802;28;20194;-70
2021/04/25 04:23:23;;;;;;;4.85;3.90;;;10.70;85.80;;;;;;5089859;28;20225;-70
2021/04/25 04:25:49;;;;;;;2.90;2.60;;;10.60;85.00;;;;;;5090013;28;20206;-70
2021/04/25 04:28:16;;;;;;;3.47;2.72;;;10.60;85.00;;;;;;5090281;28;20205;-70
2021/04/25 04:30:43;;;;;;;5.60;3.25;;;10.60;85.10;;;;;;5090436;28;20197;-70
2021/04/25 04:33:09;;;;;;;3.28;2.42;;;10.60;85.20;;;;;;5093270;28;20236;-70
2021/04/25 04:35:35;;;;;;;7.28;3.13;;;10.60;85.20;;;;;;5090419;28;20197;-70
2021/04/25 04:38:02;;;;;;;4.05;2.50;;;10.60;85.40;;;;;;5090193;28;20205;-70
2021/04/25 04:40:28;;;;;;;6.20;3.17;;;10.70;85.00;;;;;;5090066;28;20209;-71
2021/04/25 04:42:54;;;;;;;3.90;3.00;;;10.60;84.70;;;;;;5089997;28;20743;-71
2021/04/25 04:45:20;;;;;;;6.20;3.00;;;10.60;85.00;;;;;;5090000;28;20212;-71
2021/04/25 04:47:48;;;;;;;3.45;3.00;;;10.60;85.00;;;;;;5090604;28;20275;-70
2021/04/25 04:50:17;;;;;;;3.53;2.70;;;10.60;84.80;;;;;;5096524;28;20201;-70
2021/04/25 04:52:44;;;;;;;3.75;3.10;;;10.60;84.90;;;;;;5113063;28;20192;-70
2021/04/25 04:55:12;;;;;;;4.15;3.13;;;10.60;85.10;;;;;;5113842;28;20652;-70
2021/04/25 04:57:38;;;;;;;5.70;3.78;;;10.60;85.00;;;;;;5094182;28;20197;-70
2021/04/25 05:00:06;;;;;;;3.60;3.25;;;10.60;84.80;;;;;;5093540;28;20208;-70
2021/04/25 05:02:32;;;;;;;3.65;2.55;;;10.60;85.00;;;;;;5094121;28;20198;-70
2021/04/25 05:05:00;;;;;;;3.22;2.85;;;10.50;84.90;;;;;;5094537;28;20201;-71
2021/04/25 05:07:26;;;;;;;3.70;2.90;;;10.50;85.00;;;;;;5103392;28;20669;-70
2021/04/25 05:09:52;;;;;;;3.90;2.70;;;10.50;84.90;;;;;;5099073;28;20189;-70
2021/04/25 05:12:18;;;;;;;4.00;2.80;;;10.50;85.30;;;;;;5093411;28;20198;-70
2021/04/25 05:14:45;;;;;;;7.25;3.40;;;10.50;85.10;;;;;;5093309;28;20201;-70
2021/04/25 05:17:11;;;;;;;3.80;2.58;;;10.40;85.10;;;;;;5097480;28;20193;-70
2021/04/25 05:19:37;;;;;;;4.03;2.50;;;10.50;84.90;;;;;;5109665;28;20197;-71
2021/04/25 05:22:04;;;;;;;6.45;3.90;;;10.50;84.70;;;;;;5094496;28;20216;-71
2021/04/25 05:24:30;;;;;;;4.90;2.70;;;10.40;84.40;;;;;;5110511;28;20233;-71
2021/04/25 05:26:57;;;;;;;4.38;3.28;;;10.40;84.30;;;;;;5093965;28;20225;-70
2021/04/25 05:29:23;;;;;;;7.97;2.63;;;10.40;84.30;;;;;;5093692;28;20206;-71
2021/04/25 05:31:49;;;;;;;4.47;2.65;;;10.40;84.50;;;;;;5099878;28;20204;-71
2021/04/25 05:34:15;;;;;;;3.58;2.60;;;10.40;84.30;;;;;;5113047;28;20208;-71
2021/04/25 05:36:41;;;;;;;3.50;2.65;;;10.40;84.50;;;;;;5112959;28;20201;-71
2021/04/25 05:39:08;;;;;;;5.95;2.58;;;10.40;84.00;;;;;;5113181;28;20201;-70
2021/04/25 05:41:35;;;;;;;3.35;2.60;;;10.40;84.00;;;;;;5097316;28;20201;-70
2021/04/25 05:44:01;;;;;;;3.78;2.70;;;10.50;83.90;;;;;;5092837;28;20193;-70
2021/04/25 05:46:28;;;;;;;3.83;2.92;;;10.40;83.80;;;;;;5092298;28;20228;-70
2021/04/25 05:48:54;;;;;;;3.90;2.45;;;10.50;83.80;;;;;;5092319;28;20282;-70
2021/04/25 05:51:21;;;;;;;2.90;2.60;;;10.50;83.60;;;;;;5107684;28;20193;-70
2021/04/25 05:53:47;;;;;;;3.30;2.35;;;10.50;83.70;;;;;;5111470;28;20205;-70
2021/04/25 05:56:14;;;;;;;3.83;2.72;;;10.50;83.40;;;;;;5112465;28;20247;-70
2021/04/25 05:58:40;;;;;;;2.55;2.05;;;10.50;83.20;;;;;;5095688;28;20213;-70
2021/04/25 06:01:06;;;;;;;5.55;2.80;;;10.40;83.10;;;;;;5105406;28;20193;-70
2021/04/25 06:03:32;;;;;;;4.03;2.55;;;10.40;83.60;;;;;;5098300;28;20194;-70
2021/04/25 06:05:59;;;;;;;5.50;2.50;;;10.40;83.10;;;;;;5105078;28;20205;-70
2021/04/25 06:08:25;;;;;;;3.67;2.22;;;10.40;83.50;;;;;;5099471;28;20189;-71
2021/04/25 06:10:51;;;;;;;4.03;3.15;;;10.40;83.40;;;;;;5104901;28;20242;-71
2021/04/25 06:13:18;;;;;;;3.80;2.88;;;10.40;83.60;;;;;;5093842;28;20202;-71
2021/04/25 06:15:44;;;;;;;5.43;2.80;;;10.30;83.80;;;;;;5097261;28;20192;-70
2021/04/25 06:18:10;;;;;;;3.42;2.40;;;10.40;83.60;;;;;;5104741;28;20193;-70
2021/04/25 06:20:36;;;;;;;3.42;2.15;;;10.40;84.00;;;;;;5101400;28;20201;-70
2021/04/25 06:23:02;;;;;;;3.00;2.20;;;10.30;83.00;;;;;;5107726;28;20282;-70
2021/04/25 06:25:29;;;;;;;8.13;3.10;;;10.30;83.20;;;;;;5107502;28;20586;-70
2021/04/25 06:27:55;;;;;;;4.45;2.45;;;10.30;83.30;;;;;;5091712;28;20214;-70
2021/04/25 06:30:23;;;;;;;3.83;2.40;;;10.40;83.20;;;;;;5096514;28;20239;-70
2021/04/25 06:32:49;;;;;;;3.95;2.38;;;10.30;82.60;;;;;;5091236;28;20201;-71
2021/04/25 06:35:16;;;;;;;3.38;2.40;;;10.30;82.50;;;;;;5097405;28;20235;-71
2021/04/25 06:37:45;;;;;;;4.65;2.65;;;10.20;83.30;;;;;;5091439;28;20198;-70
2021/04/25 06:40:13;;;;;;;2.60;2.17;;;10.30;82.80;;;;;;5096137;28;20189;-70
2021/04/25 06:42:40;;;;;;;3.35;2.50;;;10.30;82.80;;;;;;5111965;28;20200;-70
2021/04/25 06:45:09;;;;;;;3.13;2.05;;;10.30;82.50;;;;;;5095534;28;20197;-70
2021/04/25 06:47:36;;;;;;;3.42;2.30;;;10.30;81.30;;;;;;5090857;28;20220;-70
2021/04/25 06:50:05;;;;;;;5.00;2.05;;;10.20;81.30;;;;;;5102715;28;20192;-69
2021/04/25 06:52:31;;;;;;;3.13;2.83;;;10.20;81.10;;;;;;5090839;28;20592;-69
2021/04/25 06:54:57;;;;;;;2.65;1.80;;;10.20;82.00;;;;;;5091395;28;20209;-70
2021/04/25 06:57:23;;;;;;;4.15;2.30;;;10.20;81.20;;;;;;5091319;28;20208;-70
2021/04/25 06:59:50;;;;;;;5.97;2.15;;;10.20;81.60;;;;;;5103382;28;20633;-69
2021/04/25 07:02:16;;;;;;;2.88;2.10;;;10.20;81.80;;;;;;5111258;28;20200;-70
2021/04/25 07:04:43;;;;;;;3.25;1.80;;;10.20;80.80;;;;;;5102485;28;20196;-70
2021/04/25 07:07:10;;;;;;;2.55;1.98;;;10.20;80.90;;;;;;5107753;28;20220;-71
2021/04/25 07:09:36;;;;;;;4.07;2.42;;;10.20;80.70;;;;;;5094752;28;20197;-71
2021/04/25 07:12:02;;;;;;;3.85;2.08;;;10.20;80.70;;;;;;5108453;28;20200;-71
2021/04/25 07:14:28;;;;;;;3.38;2.20;;;10.20;80.30;;;;;;5110612;28;20695;-71
2021/04/25 07:16:54;;;;;;;2.80;2.25;;;10.20;80.80;;;;;;5110837;28;20208;-71
2021/04/25 07:19:21;;;;;;;4.15;2.20;;;10.20;80.50;;;;;;5095457;28;20201;-71
2021/04/25 07:21:47;;;;;;;2.45;2.17;;;10.20;81.00;;;;;;5099972;28;20212;-70
2021/04/25 07:24:14;;;;;;;5.72;1.95;;;10.30;80.00;;;;;;5090131;28;20237;-70
2021/04/25 07:26:40;;;;;;;2.63;2.25;;;10.40;80.00;;;;;;5089872;28;20232;-70
2021/04/25 07:29:06;;;;;;;3.85;1.63;;;10.40;78.80;;;;;;5090141;28;20198;-70
2021/04/25 07:31:33;;;;;;;5.90;2.17;;;10.50;78.70;;;;;;5090434;28;20250;-70
2021/04/25 07:33:59;;;;;;;2.45;2.25;;;10.60;77.90;;;;;;5093328;28;20283;-70
2021/04/25 07:36:26;;;;;;;3.17;1.77;;;10.50;77.70;;;;;;5104999;28;20662;-70
2021/04/25 07:38:53;;;;;;;2.55;2.00;;;10.50;77.20;;;;;;5110449;28;20603;-70
2021/04/25 07:41:19;;;;;;;4.60;2.22;;;10.50;76.90;;;;;;5094098;28;20625;-70
2021/04/25 07:43:45;;;;;;;4.22;2.15;;;10.60;77.00;;;;;;5101862;28;20204;-70
2021/04/25 07:46:11;;;;;;;7.38;2.22;;;10.50;77.30;;;;;;5111118;28;20212;-70
2021/04/25 07:48:38;;;;;;;4.32;2.35;;;10.60;77.50;;;;;;5101851;28;20204;-70
2021/04/25 07:51:05;;;;;;;3.63;1.73;;;10.60;76.70;;;;;;5093514;28;20197;-69
2021/04/25 07:53:31;;;;;;;3.90;1.85;;;10.60;77.20;;;;;;5096106;28;20267;-71
2021/04/25 07:55:58;;;;;;;4.80;1.60;;;10.60;77.40;;;;;;5108778;28;20197;-70
2021/04/25 07:58:24;;;;;;;2.85;1.85;;;10.60;77.40;;;;;;5110600;28;20208;-70
2021/04/25 08:00:50;;;;;;;2.25;1.70;;;10.70;78.00;;;;;;5110955;28;20192;-70
2021/04/25 08:03:16;;;;;;;3.38;1.80;;;10.60;77.40;;;;;;5102760;28;20193;-70
2021/04/25 08:05:43;;;;;;;2.50;2.10;;;10.60;78.10;;;;;;5091937;28;20526;-71
2021/04/25 08:08:09;;;;;;;3.90;1.88;;;10.60;78.70;;;;;;5110848;28;20217;-71
2021/04/25 08:10:36;;;;;;;3.15;2.00;;;10.80;76.40;;;;;;5106087;28;20197;-71
2021/04/25 08:13:03;;;;;;;3.20;1.48;;;11.10;75.70;;;;;;5093967;28;20194;-71
2021/04/25 08:15:29;;;;;;;4.10;2.88;;;11.20;74.40;;;;;;5090497;28;20220;-70
2021/04/25 08:17:56;;;;;;;2.75;1.80;;;11.10;71.70;;;;;;5099167;28;20209;-70
2021/04/25 08:20:22;;;;;;;2.85;2.17;;;11.20;73.20;;;;;;5104743;28;20197;-69
2021/04/25 08:22:48;;;;;;;3.00;1.73;;;11.20;72.20;;;;;;5092726;28;20630;-71
2021/04/25 08:25:15;;;;;;;3.20;2.00;;;11.20;72.00;;;;;;5110758;28;20313;-71
2021/04/25 08:27:43;;;;;;;1.80;1.17;;;11.20;73.20;;;;;;5094782;28;20217;-71
2021/04/25 08:30:11;;;;;;;2.03;1.90;;;11.20;72.70;;;;;;5093903;28;20205;-71
2021/04/25 08:32:37;;;;;;;4.10;1.65;;;11.30;71.60;;;;;;5102722;28;20205;-71
2021/04/25 08:35:05;;;;;;;2.40;1.60;;;11.30;71.90;;;;;;5094288;28;20700;-71
2021/04/25 08:37:31;;;;;;;3.83;1.70;;;11.30;71.80;;;;;;5095875;28;20186;-70
2021/04/25 08:39:57;;;;;;;2.28;1.70;;;11.30;71.40;;;;;;5092701;28;20205;-71
2021/04/25 08:42:24;;;;;;;3.15;1.95;;;11.30;71.10;;;;;;5094206;28;20201;-70
2021/04/25 08:44:53;;;;;;;1.83;1.50;;;11.20;71.50;;;;;;5111827;28;20201;-70
2021/04/25 08:47:21;;;;;;;2.08;1.75;;;11.20;71.60;;;;;;5106650;28;20224;-70
2021/04/25 08:49:49;;;;;;;3.65;2.00;;;11.20;72.30;;;;;;5099453;28;20204;-70
2021/04/25 08:52:15;;;;;;;3.65;1.95;;;11.10;72.60;;;;;;5099865;28;20192;-72
2021/04/25 08:54:42;;;;;;;2.13;1.55;;;11.10;73.40;;;;;;5095966;28;20212;-72
2021/04/25 08:57:08;;;;;;;3.88;1.80;;;11.20;72.70;;;;;;5093894;28;20200;-72
2021/04/25 08:59:34;;;;;;;2.15;1.27;;;11.40;71.60;;;;;;5112673;28;20250;-71
2021/04/25 09:02:01;;;;;;;3.38;1.75;;;11.50;70.80;;;;;;5096300;28;20599;-72
2021/04/25 09:04:28;;;;;;;3.55;1.60;;;11.50;70.00;;;;;;5105581;28;20200;-72
2021/04/25 09:07:03;;;;;;;2.13;1.40;;;11.60;69.30;;;;;;5106527;28;20214;-72
2021/04/25 09:09:46;;;;;;;5.30;1.75;;;11.50;69.20;;;;;;5093285;28;20205;-72
2021/04/25 09:12:15;;;;;;;2.95;1.73;;;11.50;69.40;;;;;;5105109;28;20189;-71
2021/04/25 09:14:42;;;;;;;2.03;1.80;;;11.50;71.30;;;;;;5109057;28;20211;-71
2021/04/25 09:17:08;;;;;;;7.63;1.73;;;11.60;70.90;;;;;;5094253;28;20201;-71
2021/04/25 09:19:49;;;;;;;2.03;1.67;;;11.60;70.70;;;;;;5094587;28;20750;-71
2021/04/25 09:22:16;;;;;;;6.45;1.60;;;11.60;68.90;;;;;;5095518;28;20268;-71
2021/04/25 09:24:43;;;;;;;5.72;1.90;;;11.70;68.40;;;;;;5113039;28;20193;-71
2021/04/25 09:27:09;;;;;;;1.75;1.55;;;11.70;67.80;;;;;;5099769;28;20676;-71
2021/04/25 09:29:49;;;;;;;4.57;1.65;;;11.70;67.70;;;;;;5110968;28;20201;-71
2021/04/25 09:32:17;;;;;;;3.90;1.65;;;11.60;68.20;;;;;;5106108;28;20185;-71
2021/04/25 09:34:43;;;;;;;2.33;1.65;;;11.70;68.30;;;;;;5094473;28;20245;-71
2021/04/25 09:37:19;;;;;;;2.85;1.80;;;11.70;68.00;;;;;;5104541;28;20193;-71
2021/04/25 09:39:58;;;;;;;5.88;1.65;;;11.70;69.30;;;;;;5101725;28;20236;-71
2021/04/25 09:42:25;;;;;;;2.15;1.85;;;11.80;69.60;;;;;;5096023;28;20264;-71
2021/04/25 09:44:51;;;;;;;4.78;2.00;;;11.90;68.50;;;;;;5098188;28;20198;-71
2021/04/25 09:47:17;;;;;;;4.93;1.65;;;11.90;68.70;;;;;;5091789;28;20209;-70
2021/04/25 09:49:45;;;;;;;2.30;1.63;;;11.90;68.20;;;;;;5092210;28;20212;-71
2021/04/25 09:52:13;;;;;;;1.60;1.50;;;12.00;68.50;;;;;;5093031;28;20206;-74
2021/04/25 09:54:41;;;;;;;2.78;1.73;;;12.00;68.30;;;;;;5107920;28;20203;-71
2021/04/25 09:57:08;;;;;;;8.63;2.90;;;12.00;69.20;;;;;;5095075;28;20325;-71
2021/04/25 09:59:52;;;;;;;5.82;1.95;;;12.10;68.30;;;;;;5093079;28;20208;-71
2021/04/25 10:02:18;;;;;;;4.70;1.85;;;12.00;67.70;;;;;;5091696;28;20537;-71
2021/04/25 10:04:44;;;;;;;4.78;2.08;;;12.10;68.50;;;;;;5093071;28;20201;-71
2021/04/25 10:07:10;;;;;;;4.60;2.03;;;12.10;68.50;;;;;;5094545;28;20251;-71
2021/04/25 10:09:37;;;;;;;3.05;1.60;;;12.20;68.90;;;;;;5109292;28;20208;-71
2021/04/25 10:12:05;;;;;;;2.45;1.58;;;12.20;69.10;;;;;;5094829;28;20226;-71
2021/04/25 10:14:33;;;;;;;6.50;2.60;;;12.20;68.80;;;;;;5096067;28;20198;-71
2021/04/25 10:17:01;;;;;;;3.38;1.73;;;12.20;68.40;;;;;;5093817;28;20247;-71
2021/04/25 10:19:28;;;;;;;5.78;2.20;;;12.20;67.80;;;;;;5095960;28;20566;-71
2021/04/25 10:21:54;;;;;;;3.50;1.42;;;12.30;67.50;;;;;;5102403;27;20189;-71
2021/04/25 10:24:21;;;;;;;4.47;2.05;;;12.30;67.40;;;;;;5104406;27;20225;-70
2021/04/25 10:26:57;;;;;;;2.42;2.22;;;12.30;67.10;;;;;;5106635;28;20270;-71
2021/04/25 10:29:28;;;;;;;3.30;1.50;;;12.30;66.80;;;;;;5091201;28;20734;-72
2021/04/25 10:31:59;;;;;;;2.40;1.80;;;12.30;67.50;;;;;;5099311;28;20530;-70
2021/04/25 10:34:26;;;;;;;2.67;1.50;;;12.40;68.30;;;;;;5100974;28;20196;-70
2021/04/25 10:36:58;;;;;;;3.20;1.40;;;12.40;68.50;;;;;;5106467;28;20196;-70
2021/04/25 10:39:45;;;;;;;2.58;1.40;;;12.50;68.40;;;;;;5098549;28;20388;-70
2021/04/25 10:42:29;;;;;;;3.17;2.30;;;12.50;68.00;;;;;;5104483;28;20633;-71
2021/04/25 10:45:18;;;;;;;2.97;1.38;;;12.50;67.30;;;;;;5091547;28;20198;-70
2021/04/25 10:47:46;;;;;;;2.17;1.30;;;12.50;66.60;;;;;;5098685;28;20255;-70
2021/04/25 10:50:44;;;;;;;3.72;1.45;;;12.60;67.00;;;;;;5100920;28;20560;-70
2021/04/25 10:53:28;;;;;;;2.35;1.55;;;12.60;67.70;;;;;;5096694;28;20279;-70
2021/04/25 10:56:21;;;;;;;1.67;1.30;;;12.60;68.30;;;;;;5094129;28;20195;-70
2021/04/25 10:59:08;;;;;;;2.85;1.40;;;12.60;67.60;;;;;;5094414;28;20209;-70
2021/04/25 11:01:48;;;;;;;3.92;1.70;;;12.70;67.40;;;;;;5092936;28;20204;-70
2021/04/25 11:04:47;;;;;;;4.75;1.88;;;12.60;67.80;;;;;;5091118;28;20198;-70
2021/04/25 11:07:41;;;;;;;2.33;1.40;;;12.70;68.50;;;;;;5083358;27;20225;-70
2021/04/25 11:10:08;;;;;;;1.90;1.20;;;12.70;68.60;;;;;;5088953;28;20213;-71
2021/04/25 11:12:35;;;;;;;2.15;1.50;;;12.70;68.50;;;;;;5096089;28;20197;-71
2021/04/25 11:15:02;;;;;;;4.30;1.55;;;12.70;68.20;;;;;;5097272;28;20220;-70
2021/04/25 11:17:30;;;;;;;2.53;1.60;;;12.70;68.50;;;;;;5107476;28;20207;-71
2021/04/25 11:19:56;;;;;;;3.33;1.70;;;12.70;68.50;;;;;;5092266;28;20201;-70
2021/04/25 11:22:42;;;;;;;4.57;1.67;;;12.70;68.40;;;;;;5099834;28;20197;-70
2021/04/25 11:25:29;;;;;;;1.33;1.20;;;12.70;68.20;;;;;;5096763;28;20569;-70
2021/04/25 11:27:55;;;;;;;4.40;1.80;;;12.80;67.90;;;;;;5093640;28;20231;-70
2021/04/25 11:30:38;;;;;;;3.58;1.75;;;12.80;67.80;;;;;;5090796;28;20208;-70
2021/04/25 11:33:30;;;;;;;2.38;1.60;;;12.80;68.00;;;;;;5100736;28;20200;-70
2021/04/25 11:36:30;;;;;;;2.63;1.38;;;12.80;68.40;;;;;;5089795;28;20201;-70
2021/04/25 11:38:57;;;;;;;3.38;1.55;;;12.90;69.00;;;;;;5092863;28;20197;-70
2021/04/25 11:41:24;;;;;;;4.43;1.52;;;12.90;68.00;;;;;;5091742;28;20274;-70
2021/04/25 11:43:50;;;;;;;3.55;1.67;;;13.00;68.00;;;;;;5089376;28;20197;-70
2021/04/25 11:46:16;;;;;;;2.40;1.30;;;12.90;68.10;;;;;;5105823;28;20252;-70
2021/04/25 11:48:56;;;;;;;1.73;1.45;;;12.90;67.70;;;;;;5108066;28;20193;-69
2021/04/25 11:51:24;;;;;;;5.05;1.60;;;12.90;67.70;;;;;;5093960;28;20204;-69
2021/04/25 11:53:50;;;;;;;2.10;1.40;;;13.00;68.50;;;;;;5091457;28;20200;-69
2021/04/25 11:56:29;;;;;;;2.80;1.33;;;13.00;68.40;;;;;;5100203;28;20219;-70
2021/04/25 11:59:06;;;;;;;3.25;1.50;;;13.00;68.80;;;;;;5098876;28;20257;-70
2021/04/25 12:01:33;;;;;;;4.45;1.65;;;13.00;68.40;;;;;;5094023;28;20200;-69
2021/04/25 12:04:00;;;;;;;1.95;1.50;;;13.00;67.80;;;;;;5109699;28;20192;-69
2021/04/25 12:06:26;;;;;;;3.75;1.60;;;13.10;68.50;;;;;;5113591;28;20199;-70
2021/04/25 12:08:53;;;;;;;4.90;2.22;;;13.10;68.80;;;;;;5110078;28;20733;-70
2021/04/25 12:11:27;;;;;;;1.95;1.75;;;13.00;66.30;;;;;;5111072;28;20649;-70
2021/04/25 12:13:54;;;;;;;5.28;2.53;;;12.90;66.50;;;;;;5105254;28;20204;-70
2021/04/25 12:16:22;;;;;;;4.13;1.65;;;13.00;66.60;;;;;;5113489;28;20200;-70
2021/04/25 12:18:50;;;;;;;3.30;1.42;;;13.00;66.80;;;;;;5102428;28;20253;-70
2021/04/25 12:21:20;;;;;;;3.08;1.92;;;13.00;67.00;;;;;;5106487;28;20205;-70
2021/04/25 12:23:48;;;;;;;3.90;1.90;;;13.00;67.20;;;;;;5102526;28;20239;-70
2021/04/25 12:26:17;;;;;;;2.75;1.48;;;13.00;66.80;;;;;;5102001;28;20204;-69
2021/04/25 12:28:45;;;;;;;4.68;1.73;;;13.00;66.60;;;;;;5099245;28;20224;-70
2021/04/25 12:31:13;;;;;;;3.10;1.50;;;13.00;66.50;;;;;;5106907;28;20253;-69
2021/04/25 12:33:41;;;;;;;4.47;1.65;;;13.00;66.70;;;;;;5113716;28;20200;-69
2021/04/25 12:36:10;;;;;;;4.35;2.10;;;12.90;66.60;;;;;;5094185;28;20224;-69
2021/04/25 12:38:38;;;;;;;3.72;1.63;;;13.00;67.10;;;;;;5096653;28;20186;-69
2021/04/25 12:41:06;;;;;;;2.38;1.80;;;12.90;66.10;;;;;;5100999;28;20204;-69
2021/04/25 12:43:34;;;;;;;2.80;1.60;;;12.90;66.70;;;;;;5095534;28;20205;-69
2021/04/25 12:46:11;;;;;;;5.35;2.40;;;13.00;67.10;;;;;;5098979;28;20246;-69
2021/04/25 12:48:39;;;;;;;5.00;1.92;;;13.00;67.30;;;;;;5100002;28;20212;-70
2021/04/25 12:51:15;;;;;;;4.03;1.70;;;13.00;66.80;;;;;;5101452;28;20283;-70
2021/04/25 12:53:46;;;;;;;5.45;2.15;;;13.00;66.60;;;;;;5104659;28;20192;-70